AEX weather

Alexandria International Airport
Alexandria, Louisiana, United States

Public forecast

Using degrees Fahrenheit for public forecast. Weather courtesy of forecast.io.

METAR (pilot weather report)

Retrieved 2019/03/23 13:53 UTC (57 minutes ago):

KAEX 231353Z 11004KT 7SM CLR 12/10 A3019 RMK AO2 SLP227 T01220100 $

TAF (pilot weather forecast)

Retrieved 2019/03/23 12:22 UTC (2 hours ago):

TAF KAEX 231120Z 2312/2412 14004KT P6SM BKN250 FM231900 16010G16KT P6SM BKN250 FM240000 15004KT P6SM SCT250